sensor_id;sensor_type;location;lat;lon;timestamp;temperature;humidity
10459;DHT22;5277;48.722;8.736;2022-07-05T00:01:51;16.50;99.90
10459;DHT22;5277;48.722;8.736;2022-07-05T00:04:16;16.40;99.90
10459;DHT22;5277;48.722;8.736;2022-07-05T00:06:42;16.40;99.90
10459;DHT22;5277;48.722;8.736;2022-07-05T00:09:28;16.30;99.90
10459;DHT22;5277;48.722;8.736;2022-07-05T00:11:54;16.20;99.90
10459;DHT22;5277;48.722;8.736;2022-07-05T00:14:19;15.90;99.90
10459;DHT22;5277;48.722;8.736;2022-07-05T00:16:45;15.90;99.90
10459;DHT22;5277;48.722;8.736;2022-07-05T00:19:11;16.00;99.90
10459;DHT22;5277;48.722;8.736;2022-07-05T00:21:36;16.00;99.90
10459;DHT22;5277;48.722;8.736;2022-07-05T00:24:02;16.10;99.90
10459;DHT22;5277;48.722;8.736;2022-07-05T00:26:28;16.00;99.90
10459;DHT22;5277;48.722;8.736;2022-07-05T00:28:54;15.90;99.90
10459;DHT22;5277;48.722;8.736;2022-07-05T00:31:19;15.70;99.90
10459;DHT22;5277;48.722;8.736;2022-07-05T00:33:45;15.70;99.90
10459;DHT22;5277;48.722;8.736;2022-07-05T00:36:11;15.80;99.90
10459;DHT22;5277;48.722;8.736;2022-07-05T00:38:36;15.80;99.90
10459;DHT22;5277;48.722;8.736;2022-07-05T00:41:02;15.80;99.90
10459;DHT22;5277;48.722;8.736;2022-07-05T00:43:28;15.80;99.90
10459;DHT22;5277;48.722;8.736;2022-07-05T00:45:54;15.80;99.90
10459;DHT22;5277;48.722;8.736;2022-07-05T00:48:19;15.80;99.90
10459;DHT22;5277;48.722;8.736;2022-07-05T00:50:45;15.80;99.90
10459;DHT22;5277;48.722;8.736;2022-07-05T00:53:11;15.80;99.90
10459;DHT22;5277;48.722;8.736;2022-07-05T00:55:37;15.80;99.90
10459;DHT22;5277;48.722;8.736;2022-07-05T00:58:03;15.70;99.90
10459;DHT22;5277;48.722;8.736;2022-07-05T01:00:28;15.60;99.90
10459;DHT22;5277;48.722;8.736;2022-07-05T01:02:54;15.60;99.90
10459;DHT22;5277;48.722;8.736;2022-07-05T01:05:21;15.60;99.90
10459;DHT22;5277;48.722;8.736;2022-07-05T01:07:47;15.60;99.90
10459;DHT22;5277;48.722;8.736;2022-07-05T01:10:13;15.60;99.90
10459;DHT22;5277;48.722;8.736;2022-07-05T01:12:39;15.60;99.90
10459;DHT22;5277;48.722;8.736;2022-07-05T01:15:06;15.50;99.90
10459;DHT22;5277;48.722;8.736;2022-07-05T01:17:34;15.40;99.90
10459;DHT22;5277;48.722;8.736;2022-07-05T01:20:05;15.40;99.90
10459;DHT22;5277;48.722;8.736;2022-07-05T01:25:18;15.40;99.90
10459;DHT22;5277;48.722;8.736;2022-07-05T01:27:45;15.30;99.90
10459;DHT22;5277;48.722;8.736;2022-07-05T01:30:11;15.30;99.90
10459;DHT22;5277;48.722;8.736;2022-07-05T01:32:37;15.30;99.90
10459;DHT22;5277;48.722;8.736;2022-07-05T01:35:04;15.30;99.90
10459;DHT22;5277;48.722;8.736;2022-07-05T01:37:30;15.30;99.90
10459;DHT22;5277;48.722;8.736;2022-07-05T01:39:57;15.30;99.90
10459;DHT22;5277;48.722;8.736;2022-07-05T01:42:24;15.10;99.90
10459;DHT22;5277;48.722;8.736;2022-07-05T01:44:49;15.10;99.90
10459;DHT22;5277;48.722;8.736;2022-07-05T01:47:16;15.10;99.90
10459;DHT22;5277;48.722;8.736;2022-07-05T01:49:45;15.00;99.90
10459;DHT22;5277;48.722;8.736;2022-07-05T01:52:12;15.00;99.90
10459;DHT22;5277;48.722;8.736;2022-07-05T01:54:38;15.00;99.90
10459;DHT22;5277;48.722;8.736;2022-07-05T01:57:05;14.90;99.90
10459;DHT22;5277;48.722;8.736;2022-07-05T01:59:36;14.90;99.90
10459;DHT22;5277;48.722;8.736;2022-07-05T02:02:07;14.80;99.90
10459;DHT22;5277;48.722;8.736;2022-07-05T02:04:36;14.80;99.90
10459;DHT22;5277;48.722;8.736;2022-07-05T02:07:06;14.80;99.90
10459;DHT22;5277;48.722;8.736;2022-07-05T02:09:32;14.80;99.90
10459;DHT22;5277;48.722;8.736;2022-07-05T02:11:58;14.80;99.90
10459;DHT22;5277;48.722;8.736;2022-07-05T02:14:24;14.80;99.90
10459;DHT22;5277;48.722;8.736;2022-07-05T02:16:49;14.80;99.90
10459;DHT22;5277;48.722;8.736;2022-07-05T02:19:15;14.80;99.90
10459;DHT22;5277;48.722;8.736;2022-07-05T02:21:41;14.80;99.90
10459;DHT22;5277;48.722;8.736;2022-07-05T02:24:07;14.70;99.90
10459;DHT22;5277;48.722;8.736;2022-07-05T02:26:33;14.50;99.90
10459;DHT22;5277;48.722;8.736;2022-07-05T02:28:59;14.50;99.90
10459;DHT22;5277;48.722;8.736;2022-07-05T02:31:25;14.40;99.90
10459;DHT22;5277;48.722;8.736;2022-07-05T02:33:51;14.40;99.90
10459;DHT22;5277;48.722;8.736;2022-07-05T02:36:17;14.40;99.90
10459;DHT22;5277;48.722;8.736;2022-07-05T02:38:43;14.50;99.90
10459;DHT22;5277;48.722;8.736;2022-07-05T02:41:10;14.30;99.90
10459;DHT22;5277;48.722;8.736;2022-07-05T02:43:37;14.30;99.90
10459;DHT22;5277;48.722;8.736;2022-07-05T02:46:04;14.30;99.90
10459;DHT22;5277;48.722;8.736;2022-07-05T02:48:30;14.30;99.90
10459;DHT22;5277;48.722;8.736;2022-07-05T02:50:56;14.20;99.90
10459;DHT22;5277;48.722;8.736;2022-07-05T02:53:22;14.30;99.90
10459;DHT22;5277;48.722;8.736;2022-07-05T02:55:48;14.20;99.90
10459;DHT22;5277;48.722;8.736;2022-07-05T02:58:14;14.20;99.90
10459;DHT22;5277;48.722;8.736;2022-07-05T03:00:43;14.20;99.90
10459;DHT22;5277;48.722;8.736;2022-07-05T03:03:09;14.20;99.90
10459;DHT22;5277;48.722;8.736;2022-07-05T03:05:34;14.20;99.90
10459;DHT22;5277;48.722;8.736;2022-07-05T03:08:00;14.10;99.90
10459;DHT22;5277;48.722;8.736;2022-07-05T03:10:26;14.10;99.90
10459;DHT22;5277;48.722;8.736;2022-07-05T03:12:52;13.90;99.90
10459;DHT22;5277;48.722;8.736;2022-07-05T03:15:18;13.90;99.90
10459;DHT22;5277;48.722;8.736;2022-07-05T03:17:43;13.90;99.90
10459;DHT22;5277;48.722;8.736;2022-07-05T03:20:09;14.00;99.90
10459;DHT22;5277;48.722;8.736;2022-07-05T03:22:35;14.00;99.90
10459;DHT22;5277;48.722;8.736;2022-07-05T03:25:01;13.90;99.90
10459;DHT22;5277;48.722;8.736;2022-07-05T03:27:28;13.90;99.90
10459;DHT22;5277;48.722;8.736;2022-07-05T03:29:53;13.90;99.90
10459;DHT22;5277;48.722;8.736;2022-07-05T03:32:19;13.90;99.90
10459;DHT22;5277;48.722;8.736;2022-07-05T03:34:45;13.90;99.90
10459;DHT22;5277;48.722;8.736;2022-07-05T03:37:10;13.80;99.90
10459;DHT22;5277;48.722;8.736;2022-07-05T03:39:36;13.80;99.90
10459;DHT22;5277;48.722;8.736;2022-07-05T03:42:02;13.90;99.90
10459;DHT22;5277;48.722;8.736;2022-07-05T03:44:28;13.90;99.90
10459;DHT22;5277;48.722;8.736;2022-07-05T03:46:57;13.90;99.90
10459;DHT22;5277;48.722;8.736;2022-07-05T03:49:22;13.80;99.90
10459;DHT22;5277;48.722;8.736;2022-07-05T03:51:48;13.70;99.90
10459;DHT22;5277;48.722;8.736;2022-07-05T03:54:14;13.70;99.90
10459;DHT22;5277;48.722;8.736;2022-07-05T03:56:39;13.80;99.90
10459;DHT22;5277;48.722;8.736;2022-07-05T03:59:05;13.80;99.90
10459;DHT22;5277;48.722;8.736;2022-07-05T04:01:31;13.80;99.90
10459;DHT22;5277;48.722;8.736;2022-07-05T04:03:57;13.70;99.90
10459;DHT22;5277;48.722;8.736;2022-07-05T04:06:22;13.70;99.90
10459;DHT22;5277;48.722;8.736;2022-07-05T04:08:48;13.70;99.90
10459;DHT22;5277;48.722;8.736;2022-07-05T04:11:16;13.80;99.90
10459;DHT22;5277;48.722;8.736;2022-07-05T04:13:42;13.70;99.90
10459;DHT22;5277;48.722;8.736;2022-07-05T04:16:08;13.60;99.90
10459;DHT22;5277;48.722;8.736;2022-07-05T04:18:34;13.70;99.90
10459;DHT22;5277;48.722;8.736;2022-07-05T04:21:12;13.80;99.90
10459;DHT22;5277;48.722;8.736;2022-07-05T04:23:38;13.70;99.90
10459;DHT22;5277;48.722;8.736;2022-07-05T04:26:04;13.80;99.90
10459;DHT22;5277;48.722;8.736;2022-07-05T04:28:30;13.80;99.90
10459;DHT22;5277;48.722;8.736;2022-07-05T04:30:56;13.60;99.90
10459;DHT22;5277;48.722;8.736;2022-07-05T04:33:22;13.60;99.90
10459;DHT22;5277;48.722;8.736;2022-07-05T04:35:48;13.70;99.90
10459;DHT22;5277;48.722;8.736;2022-07-05T04:38:14;13.80;99.90
10459;DHT22;5277;48.722;8.736;2022-07-05T04:40:39;13.80;99.90
10459;DHT22;5277;48.722;8.736;2022-07-05T04:43:06;13.80;99.90
10459;DHT22;5277;48.722;8.736;2022-07-05T04:45:32;13.80;99.90
10459;DHT22;5277;48.722;8.736;2022-07-05T04:47:58;13.80;99.90
10459;DHT22;5277;48.722;8.736;2022-07-05T04:50:24;13.80;99.90
10459;DHT22;5277;48.722;8.736;2022-07-05T04:52:49;13.80;99.90
10459;DHT22;5277;48.722;8.736;2022-07-05T04:55:15;13.80;99.90
10459;DHT22;5277;48.722;8.736;2022-07-05T04:57:41;13.80;99.90
10459;DHT22;5277;48.722;8.736;2022-07-05T05:00:12;13.60;99.90
10459;DHT22;5277;48.722;8.736;2022-07-05T05:02:39;13.60;99.90
10459;DHT22;5277;48.722;8.736;2022-07-05T05:05:05;13.60;99.90
10459;DHT22;5277;48.722;8.736;2022-07-05T05:07:31;13.60;99.90
10459;DHT22;5277;48.722;8.736;2022-07-05T05:09:58;13.70;99.90
10459;DHT22;5277;48.722;8.736;2022-07-05T05:12:24;13.80;99.90
10459;DHT22;5277;48.722;8.736;2022-07-05T05:14:50;13.80;99.90
10459;DHT22;5277;48.722;8.736;2022-07-05T05:17:16;13.90;99.90
10459;DHT22;5277;48.722;8.736;2022-07-05T05:19:42;14.00;99.90
10459;DHT22;5277;48.722;8.736;2022-07-05T05:22:08;14.10;99.90
10459;DHT22;5277;48.722;8.736;2022-07-05T05:24:34;14.10;99.90
10459;DHT22;5277;48.722;8.736;2022-07-05T05:27:00;14.20;99.90
10459;DHT22;5277;48.722;8.736;2022-07-05T05:29:27;14.20;99.90
10459;DHT22;5277;48.722;8.736;2022-07-05T05:31:53;14.20;99.90
10459;DHT22;5277;48.722;8.736;2022-07-05T05:34:19;14.20;99.90
10459;DHT22;5277;48.722;8.736;2022-07-05T05:36:44;14.40;99.90
10459;DHT22;5277;48.722;8.736;2022-07-05T05:39:10;14.60;99.90
10459;DHT22;5277;48.722;8.736;2022-07-05T05:41:36;14.80;99.90
10459;DHT22;5277;48.722;8.736;2022-07-05T05:44:01;14.90;99.90
10459;DHT22;5277;48.722;8.736;2022-07-05T05:46:28;14.90;99.90
10459;DHT22;5277;48.722;8.736;2022-07-05T05:48:53;15.10;99.90
10459;DHT22;5277;48.722;8.736;2022-07-05T05:51:19;15.20;99.90
10459;DHT22;5277;48.722;8.736;2022-07-05T05:53:45;15.30;99.90
10459;DHT22;5277;48.722;8.736;2022-07-05T05:56:14;15.30;99.90
10459;DHT22;5277;48.722;8.736;2022-07-05T05:58:40;15.60;99.90
10459;DHT22;5277;48.722;8.736;2022-07-05T06:01:05;15.80;99.90
10459;DHT22;5277;48.722;8.736;2022-07-05T06:03:31;15.90;99.90
10459;DHT22;5277;48.722;8.736;2022-07-05T06:05:57;16.00;99.90
10459;DHT22;5277;48.722;8.736;2022-07-05T06:08:23;16.30;99.90
10459;DHT22;5277;48.722;8.736;2022-07-05T06:10:49;16.50;99.90
10459;DHT22;5277;48.722;8.736;2022-07-05T06:13:15;16.70;99.90
10459;DHT22;5277;48.722;8.736;2022-07-05T06:15:42;16.90;99.90
10459;DHT22;5277;48.722;8.736;2022-07-05T06:18:09;17.30;99.90
10459;DHT22;5277;48.722;8.736;2022-07-05T06:20:36;17.70;99.90
10459;DHT22;5277;48.722;8.736;2022-07-05T06:23:03;18.00;99.60
10459;DHT22;5277;48.722;8.736;2022-07-05T06:29:03;18.80;99.00
10459;DHT22;5277;48.722;8.736;2022-07-05T06:31:29;19.10;97.90
10459;DHT22;5277;48.722;8.736;2022-07-05T06:33:54;19.40;97.70
10459;DHT22;5277;48.722;8.736;2022-07-05T06:36:20;19.70;97.30
10459;DHT22;5277;48.722;8.736;2022-07-05T06:38:45;20.00;96.90
10459;DHT22;5277;48.722;8.736;2022-07-05T06:41:11;20.20;96.40
10459;DHT22;5277;48.722;8.736;2022-07-05T06:43:37;20.40;95.40
10459;DHT22;5277;48.722;8.736;2022-07-05T06:46:02;20.60;95.20
10459;DHT22;5277;48.722;8.736;2022-07-05T06:48:28;20.70;94.80
10459;DHT22;5277;48.722;8.736;2022-07-05T06:50:54;20.90;94.90
10459;DHT22;5277;48.722;8.736;2022-07-05T06:53:20;21.10;94.50
10459;DHT22;5277;48.722;8.736;2022-07-05T06:55:45;21.30;94.20
10459;DHT22;5277;48.722;8.736;2022-07-05T06:58:11;21.50;93.80
10459;DHT22;5277;48.722;8.736;2022-07-05T07:00:38;21.70;93.70
10459;DHT22;5277;48.722;8.736;2022-07-05T07:03:04;21.80;93.60
10459;DHT22;5277;48.722;8.736;2022-07-05T07:05:30;21.90;92.20
10459;DHT22;5277;48.722;8.736;2022-07-05T07:07:55;22.10;92.80
10459;DHT22;5277;48.722;8.736;2022-07-05T07:10:40;22.30;92.50
10459;DHT22;5277;48.722;8.736;2022-07-05T07:13:06;22.50;91.80
10459;DHT22;5277;48.722;8.736;2022-07-05T07:15:31;22.70;91.50
10459;DHT22;5277;48.722;8.736;2022-07-05T07:17:59;22.90;91.30
10459;DHT22;5277;48.722;8.736;2022-07-05T07:20:25;23.10;90.60
10459;DHT22;5277;48.722;8.736;2022-07-05T07:22:51;23.20;90.20
10459;DHT22;5277;48.722;8.736;2022-07-05T07:25:17;23.40;90.40
10459;DHT22;5277;48.722;8.736;2022-07-05T07:27:47;23.60;89.90
10459;DHT22;5277;48.722;8.736;2022-07-05T07:30:16;23.70;89.30
10459;DHT22;5277;48.722;8.736;2022-07-05T07:32:45;23.80;88.30
10459;DHT22;5277;48.722;8.736;2022-07-05T07:35:11;24.00;87.40
10459;DHT22;5277;48.722;8.736;2022-07-05T07:37:37;24.10;85.90
10459;DHT22;5277;48.722;8.736;2022-07-05T07:40:04;24.20;84.50
10459;DHT22;5277;48.722;8.736;2022-07-05T07:42:30;24.20;84.10
10459;DHT22;5277;48.722;8.736;2022-07-05T07:44:56;24.40;83.40
10459;DHT22;5277;48.722;8.736;2022-07-05T07:47:22;24.50;83.10
10459;DHT22;5277;48.722;8.736;2022-07-05T07:49:48;24.60;80.30
10459;DHT22;5277;48.722;8.736;2022-07-05T07:52:13;24.70;80.00
10459;DHT22;5277;48.722;8.736;2022-07-05T07:54:40;24.80;78.90
10459;DHT22;5277;48.722;8.736;2022-07-05T07:57:05;24.90;78.40
10459;DHT22;5277;48.722;8.736;2022-07-05T07:59:34;25.10;77.60
10459;DHT22;5277;48.722;8.736;2022-07-05T08:02:00;25.30;73.10
10459;DHT22;5277;48.722;8.736;2022-07-05T08:04:26;25.40;74.60
10459;DHT22;5277;48.722;8.736;2022-07-05T08:06:52;25.60;73.60
10459;DHT22;5277;48.722;8.736;2022-07-05T08:09:18;25.80;71.60
10459;DHT22;5277;48.722;8.736;2022-07-05T08:11:45;25.80;68.50
10459;DHT22;5277;48.722;8.736;2022-07-05T08:14:11;26.00;68.50
10459;DHT22;5277;48.722;8.736;2022-07-05T08:16:37;26.20;68.10
10459;DHT22;5277;48.722;8.736;2022-07-05T08:19:03;26.40;67.30
10459;DHT22;5277;48.722;8.736;2022-07-05T08:21:47;26.50;65.00
10459;DHT22;5277;48.722;8.736;2022-07-05T08:24:14;26.70;63.60
10459;DHT22;5277;48.722;8.736;2022-07-05T08:26:41;26.90;62.80
10459;DHT22;5277;48.722;8.736;2022-07-05T08:29:08;27.00;61.30
10459;DHT22;5277;48.722;8.736;2022-07-05T08:31:37;27.20;58.70
10459;DHT22;5277;48.722;8.736;2022-07-05T08:34:03;27.30;58.90
10459;DHT22;5277;48.722;8.736;2022-07-05T08:36:29;27.50;58.60
10459;DHT22;5277;48.722;8.736;2022-07-05T08:38:55;27.60;57.60
10459;DHT22;5277;48.722;8.736;2022-07-05T08:41:22;27.60;57.10
10459;DHT22;5277;48.722;8.736;2022-07-05T08:43:49;27.70;53.80
10459;DHT22;5277;48.722;8.736;2022-07-05T08:46:16;27.80;55.10
10459;DHT22;5277;48.722;8.736;2022-07-05T08:48:44;27.80;53.50
10459;DHT22;5277;48.722;8.736;2022-07-05T08:51:15;27.90;53.90
10459;DHT22;5277;48.722;8.736;2022-07-05T08:53:47;28.10;53.80
10459;DHT22;5277;48.722;8.736;2022-07-05T08:56:13;28.00;53.10
10459;DHT22;5277;48.722;8.736;2022-07-05T08:58:39;28.10;52.90
10459;DHT22;5277;48.722;8.736;2022-07-05T09:01:07;28.20;53.80
10459;DHT22;5277;48.722;8.736;2022-07-05T09:03:37;28.10;51.80
10459;DHT22;5277;48.722;8.736;2022-07-05T09:06:06;28.00;52.80
10459;DHT22;5277;48.722;8.736;2022-07-05T09:08:35;27.90;54.40
10459;DHT22;5277;48.722;8.736;2022-07-05T09:11:05;27.90;52.50
10459;DHT22;5277;48.722;8.736;2022-07-05T09:13:37;27.80;53.20
10459;DHT22;5277;48.722;8.736;2022-07-05T09:16:03;27.70;50.80
10459;DHT22;5277;48.722;8.736;2022-07-05T09:18:42;27.80;53.70
10459;DHT22;5277;48.722;8.736;2022-07-05T09:21:27;27.80;54.10
10459;DHT22;5277;48.722;8.736;2022-07-05T09:24:01;27.90;53.20
10459;DHT22;5277;48.722;8.736;2022-07-05T09:26:45;27.90;53.20
10459;DHT22;5277;48.722;8.736;2022-07-05T09:29:20;28.00;53.90
10459;DHT22;5277;48.722;8.736;2022-07-05T09:31:47;28.00;52.60
10459;DHT22;5277;48.722;8.736;2022-07-05T09:34:16;28.10;51.90
10459;DHT22;5277;48.722;8.736;2022-07-05T09:42:24;28.50;52.30
10459;DHT22;5277;48.722;8.736;2022-07-05T09:44:55;28.50;51.80
10459;DHT22;5277;48.722;8.736;2022-07-05T09:47:23;28.50;50.70
10459;DHT22;5277;48.722;8.736;2022-07-05T09:49:51;28.70;51.30
10459;DHT22;5277;48.722;8.736;2022-07-05T09:52:36;28.90;50.80
10459;DHT22;5277;48.722;8.736;2022-07-05T09:55:15;29.00;49.40
10459;DHT22;5277;48.722;8.736;2022-07-05T09:57:45;29.10;48.20
10459;DHT22;5277;48.722;8.736;2022-07-05T10:00:22;29.00;49.00
10459;DHT22;5277;48.722;8.736;2022-07-05T10:02:49;29.00;49.70
10459;DHT22;5277;48.722;8.736;2022-07-05T10:07:46;29.20;49.00
10459;DHT22;5277;48.722;8.736;2022-07-05T10:10:15;29.30;48.10
10459;DHT22;5277;48.722;8.736;2022-07-05T10:12:45;29.60;48.30
10459;DHT22;5277;48.722;8.736;2022-07-05T10:15:19;30.00;47.20
10459;DHT22;5277;48.722;8.736;2022-07-05T10:18:07;30.20;47.50
10459;DHT22;5277;48.722;8.736;2022-07-05T10:23:03;30.20;47.00
10459;DHT22;5277;48.722;8.736;2022-07-05T10:25:30;30.10;45.80
10459;DHT22;5277;48.722;8.736;2022-07-05T10:27:57;30.00;47.70
10459;DHT22;5277;48.722;8.736;2022-07-05T10:30:24;29.70;47.60
10459;DHT22;5277;48.722;8.736;2022-07-05T10:32:50;29.80;48.20
10459;DHT22;5277;48.722;8.736;2022-07-05T10:35:17;30.00;47.90
10459;DHT22;5277;48.722;8.736;2022-07-05T10:37:44;29.90;46.70
10459;DHT22;5277;48.722;8.736;2022-07-05T10:40:10;29.90;47.80
10459;DHT22;5277;48.722;8.736;2022-07-05T10:42:56;29.90;48.60
10459;DHT22;5277;48.722;8.736;2022-07-05T10:48:13;30.20;47.30
10459;DHT22;5277;48.722;8.736;2022-07-05T10:50:56;30.20;48.30
10459;DHT22;5277;48.722;8.736;2022-07-05T10:58:39;30.80;45.50
10459;DHT22;5277;48.722;8.736;2022-07-05T11:04:23;31.40;45.90
10459;DHT22;5277;48.722;8.736;2022-07-05T11:06:43;31.80;43.90
10459;DHT22;5277;48.722;8.736;2022-07-05T11:11:38;32.20;43.90
10459;DHT22;5277;48.722;8.736;2022-07-05T11:20:12;31.80;43.10
10459;DHT22;5277;48.722;8.736;2022-07-05T11:22:41;31.80;43.90
10459;DHT22;5277;48.722;8.736;2022-07-05T11:25:08;32.10;42.60
10459;DHT22;5277;48.722;8.736;2022-07-05T11:27:36;32.70;42.40
10459;DHT22;5277;48.722;8.736;2022-07-05T11:30:02;33.20;43.50
10459;DHT22;5277;48.722;8.736;2022-07-05T11:34:56;33.80;41.00
10459;DHT22;5277;48.722;8.736;2022-07-05T11:42:31;34.00;40.40
10459;DHT22;5277;48.722;8.736;2022-07-05T11:44:57;33.90;41.00
10459;DHT22;5277;48.722;8.736;2022-07-05T11:47:23;33.80;42.10
10459;DHT22;5277;48.722;8.736;2022-07-05T11:49:56;33.70;40.90
10459;DHT22;5277;48.722;8.736;2022-07-05T11:52:26;33.30;41.70
10459;DHT22;5277;48.722;8.736;2022-07-05T11:54:52;33.20;40.30
10459;DHT22;5277;48.722;8.736;2022-07-05T11:57:19;32.80;42.40
10459;DHT22;5277;48.722;8.736;2022-07-05T11:59:48;32.60;42.30
10459;DHT22;5277;48.722;8.736;2022-07-05T12:02:14;32.30;43.90
10459;DHT22;5277;48.722;8.736;2022-07-05T12:04:40;32.00;43.50
10459;DHT22;5277;48.722;8.736;2022-07-05T12:07:05;31.60;44.50
10459;DHT22;5277;48.722;8.736;2022-07-05T12:09:33;31.00;42.80
10459;DHT22;5277;48.722;8.736;2022-07-05T12:12:22;31.10;43.50
10459;DHT22;5277;48.722;8.736;2022-07-05T12:15:07;32.00;44.60
10459;DHT22;5277;48.722;8.736;2022-07-05T12:17:37;33.00;40.70
10459;DHT22;5277;48.722;8.736;2022-07-05T12:20:08;33.80;42.50
10459;DHT22;5277;48.722;8.736;2022-07-05T12:22:42;34.20;41.80
10459;DHT22;5277;48.722;8.736;2022-07-05T12:25:13;33.90;40.40
10459;DHT22;5277;48.722;8.736;2022-07-05T12:27:41;34.20;40.10
10459;DHT22;5277;48.722;8.736;2022-07-05T12:30:09;33.80;40.10
10459;DHT22;5277;48.722;8.736;2022-07-05T12:32:55;33.90;41.10
10459;DHT22;5277;48.722;8.736;2022-07-05T12:35:44;33.90;44.40
10459;DHT22;5277;48.722;8.736;2022-07-05T12:38:11;34.20;39.80
10459;DHT22;5277;48.722;8.736;2022-07-05T12:40:42;34.70;39.70
10459;DHT22;5277;48.722;8.736;2022-07-05T12:43:10;34.40;38.60
10459;DHT22;5277;48.722;8.736;2022-07-05T12:45:37;33.80;40.20
10459;DHT22;5277;48.722;8.736;2022-07-05T12:48:04;33.80;40.50
10459;DHT22;5277;48.722;8.736;2022-07-05T12:50:51;34.40;41.60
10459;DHT22;5277;48.722;8.736;2022-07-05T12:53:18;34.90;39.80
10459;DHT22;5277;48.722;8.736;2022-07-05T12:56:05;34.70;39.50
10459;DHT22;5277;48.722;8.736;2022-07-05T12:58:53;35.20;39.20
10459;DHT22;5277;48.722;8.736;2022-07-05T13:01:27;35.00;38.90
10459;DHT22;5277;48.722;8.736;2022-07-05T13:06:49;33.70;39.70
10459;DHT22;5277;48.722;8.736;2022-07-05T13:12:13;32.00;40.90
10459;DHT22;5277;48.722;8.736;2022-07-05T13:14:43;31.40;42.90
10459;DHT22;5277;48.722;8.736;2022-07-05T13:17:11;30.80;43.30
10459;DHT22;5277;48.722;8.736;2022-07-05T13:19:39;30.40;43.80
10459;DHT22;5277;48.722;8.736;2022-07-05T13:22:05;30.10;44.60
10459;DHT22;5277;48.722;8.736;2022-07-05T13:24:31;29.70;45.80
10459;DHT22;5277;48.722;8.736;2022-07-05T13:26:57;29.40;45.40
10459;DHT22;5277;48.722;8.736;2022-07-05T13:29:23;28.80;44.60
10459;DHT22;5277;48.722;8.736;2022-07-05T13:31:50;28.70;47.30
10459;DHT22;5277;48.722;8.736;2022-07-05T13:34:15;28.50;49.60
10459;DHT22;5277;48.722;8.736;2022-07-05T13:36:41;28.30;47.90
10459;DHT22;5277;48.722;8.736;2022-07-05T13:39:07;28.00;49.60
10459;DHT22;5277;48.722;8.736;2022-07-05T13:41:32;27.90;53.00
10459;DHT22;5277;48.722;8.736;2022-07-05T13:43:59;27.60;52.40
10459;DHT22;5277;48.722;8.736;2022-07-05T13:46:25;27.40;53.50
10459;DHT22;5277;48.722;8.736;2022-07-05T13:48:50;27.30;51.70
10459;DHT22;5277;48.722;8.736;2022-07-05T13:51:16;27.20;50.90
10459;DHT22;5277;48.722;8.736;2022-07-05T13:53:42;27.10;50.90
10459;DHT22;5277;48.722;8.736;2022-07-05T13:56:07;27.00;49.80
10459;DHT22;5277;48.722;8.736;2022-07-05T13:58:34;27.00;55.40
10459;DHT22;5277;48.722;8.736;2022-07-05T14:01:00;26.80;56.20
10459;DHT22;5277;48.722;8.736;2022-07-05T14:03:27;26.80;57.10
10459;DHT22;5277;48.722;8.736;2022-07-05T14:05:52;26.70;55.80
10459;DHT22;5277;48.722;8.736;2022-07-05T14:08:18;26.50;55.60
10459;DHT22;5277;48.722;8.736;2022-07-05T14:10:51;26.40;56.90
10459;DHT22;5277;48.722;8.736;2022-07-05T14:13:21;26.40;59.40
10459;DHT22;5277;48.722;8.736;2022-07-05T14:15:48;26.40;54.90
10459;DHT22;5277;48.722;8.736;2022-07-05T14:18:15;26.20;53.00
10459;DHT22;5277;48.722;8.736;2022-07-05T14:20:42;26.20;57.80
10459;DHT22;5277;48.722;8.736;2022-07-05T14:23:09;26.00;56.60
10459;DHT22;5277;48.722;8.736;2022-07-05T14:25:35;26.00;59.80
10459;DHT22;5277;48.722;8.736;2022-07-05T14:28:01;25.90;55.50
10459;DHT22;5277;48.722;8.736;2022-07-05T14:30:28;25.80;58.70
10459;DHT22;5277;48.722;8.736;2022-07-05T14:32:56;25.70;59.10
10459;DHT22;5277;48.722;8.736;2022-07-05T14:35:22;25.60;59.60
10459;DHT22;5277;48.722;8.736;2022-07-05T14:37:49;25.50;55.50
10459;DHT22;5277;48.722;8.736;2022-07-05T14:40:15;25.50;55.00
10459;DHT22;5277;48.722;8.736;2022-07-05T14:42:40;25.40;55.50
10459;DHT22;5277;48.722;8.736;2022-07-05T14:45:07;25.40;55.60
10459;DHT22;5277;48.722;8.736;2022-07-05T14:47:32;25.40;56.10
10459;DHT22;5277;48.722;8.736;2022-07-05T14:49:58;25.40;58.20
10459;DHT22;5277;48.722;8.736;2022-07-05T14:52:24;25.40;61.20
10459;DHT22;5277;48.722;8.736;2022-07-05T14:54:49;25.30;61.50
10459;DHT22;5277;48.722;8.736;2022-07-05T14:57:15;25.10;57.20
10459;DHT22;5277;48.722;8.736;2022-07-05T14:59:41;25.00;57.00
10459;DHT22;5277;48.722;8.736;2022-07-05T15:02:07;24.90;59.00
10459;DHT22;5277;48.722;8.736;2022-07-05T15:04:34;24.90;58.70
10459;DHT22;5277;48.722;8.736;2022-07-05T15:07:00;25.00;58.20
10459;DHT22;5277;48.722;8.736;2022-07-05T15:09:25;24.90;59.50
10459;DHT22;5277;48.722;8.736;2022-07-05T15:11:51;24.80;58.70
10459;DHT22;5277;48.722;8.736;2022-07-05T15:14:17;24.60;57.80
10459;DHT22;5277;48.722;8.736;2022-07-05T15:16:43;24.50;54.50
10459;DHT22;5277;48.722;8.736;2022-07-05T15:19:08;24.50;58.10
10459;DHT22;5277;48.722;8.736;2022-07-05T15:21:34;24.40;59.50
10459;DHT22;5277;48.722;8.736;2022-07-05T15:24:00;24.40;62.20
10459;DHT22;5277;48.722;8.736;2022-07-05T15:26:27;24.30;61.60
10459;DHT22;5277;48.722;8.736;2022-07-05T15:29:03;24.20;58.70
10459;DHT22;5277;48.722;8.736;2022-07-05T15:31:32;24.10;60.50
10459;DHT22;5277;48.722;8.736;2022-07-05T15:33:59;24.10;60.70
10459;DHT22;5277;48.722;8.736;2022-07-05T15:36:25;23.90;62.30
10459;DHT22;5277;48.722;8.736;2022-07-05T15:38:54;23.90;61.60
10459;DHT22;5277;48.722;8.736;2022-07-05T15:41:20;23.80;56.70
10459;DHT22;5277;48.722;8.736;2022-07-05T15:43:46;23.90;61.20
10459;DHT22;5277;48.722;8.736;2022-07-05T15:46:12;23.80;61.10
10459;DHT22;5277;48.722;8.736;2022-07-05T15:48:38;23.80;58.00
10459;DHT22;5277;48.722;8.736;2022-07-05T15:51:04;23.80;59.70
10459;DHT22;5277;48.722;8.736;2022-07-05T15:53:33;23.80;57.50
10459;DHT22;5277;48.722;8.736;2022-07-05T15:55:59;23.70;61.00
10459;DHT22;5277;48.722;8.736;2022-07-05T15:58:32;23.70;61.00
10459;DHT22;5277;48.722;8.736;2022-07-05T16:00:59;23.70;60.70
10459;DHT22;5277;48.722;8.736;2022-07-05T16:03:26;23.60;59.10
10459;DHT22;5277;48.722;8.736;2022-07-05T16:05:52;23.50;60.00
10459;DHT22;5277;48.722;8.736;2022-07-05T16:08:18;23.40;62.10
10459;DHT22;5277;48.722;8.736;2022-07-05T16:10:44;23.40;62.50
10459;DHT22;5277;48.722;8.736;2022-07-05T16:13:10;23.20;60.50
10459;DHT22;5277;48.722;8.736;2022-07-05T16:15:41;23.20;60.10
10459;DHT22;5277;48.722;8.736;2022-07-05T16:18:25;23.20;59.10
10459;DHT22;5277;48.722;8.736;2022-07-05T16:20:51;23.10;61.70
10459;DHT22;5277;48.722;8.736;2022-07-05T16:23:17;23.10;59.50
10459;DHT22;5277;48.722;8.736;2022-07-05T16:25:43;23.00;61.70
10459;DHT22;5277;48.722;8.736;2022-07-05T16:28:08;23.10;61.00
10459;DHT22;5277;48.722;8.736;2022-07-05T16:30:34;23.00;61.00
10459;DHT22;5277;48.722;8.736;2022-07-05T16:32:59;23.10;62.10
10459;DHT22;5277;48.722;8.736;2022-07-05T16:35:25;23.10;62.90
10459;DHT22;5277;48.722;8.736;2022-07-05T16:37:51;23.10;59.70